Terminal Aerodrome Forecast
Issued by NWS

Home | Current Version | Previous Version | Text Only | Print | Product List | Glossary Off
Versions: 1 2 3 4 5 6 7 8 9 10 11 12 13 14 15 16 17 18 19 20

024
FTUS43 KICT 291125
TAFHUT
TAF
KHUT 291125Z 2912/3012 VRB05KT P6SM SCT080 BKN250
     FM291800 VRB05KT P6SM BKN070
     FM292300 04007KT P6SM VCTS BKN070CB
     FM300200 05007KT P6SM SCT050 BKN100
     FM301000 08005KT P6SM SCT015 BKN070=

USA.gov is the U.S. government's official web portal to all federal, state and local government web resources and services.